createdAt,value
2019-01-04T00:04:07.901Z,70.96
2019-01-04T00:06:33.931Z,70.28
2019-01-04T00:08:59.918Z,70.10
2019-01-04T00:11:25.922Z,69.77
2019-01-04T00:13:51.967Z,70.28
2019-01-04T00:16:18.005Z,70.93
2019-01-04T00:18:44.032Z,71.20
2019-01-04T00:21:10.017Z,70.82
2019-01-04T00:23:36.056Z,70.53
2019-01-04T00:26:02.046Z,70.19
2019-01-04T00:28:28.121Z,69.96
2019-01-04T00:30:54.124Z,70.55
2019-01-04T00:33:20.168Z,71.03
2019-01-04T00:35:46.161Z,71.33
2019-01-04T00:38:12.185Z,70.47
2019-01-04T00:40:58.085Z,70.51
2019-01-04T00:43:24.137Z,70.80
2019-01-04T00:45:50.183Z,70.18
2019-01-04T00:50:48.711Z,71.22
2019-01-04T00:53:14.704Z,70.78
2019-01-04T00:56:22.349Z,70.26
2019-01-04T00:59:28.096Z,70.78
2019-01-04T01:02:33.898Z,70.45
2019-01-04T01:08:53.634Z,69.37
2019-01-04T01:11:59.438Z,70.04
2019-01-04T01:15:07.122Z,69.65
2019-01-04T01:21:26.184Z,70.48
2019-01-04T01:24:31.976Z,70.50
2019-01-04T01:27:37.729Z,70.04
2019-01-04T01:30:43.519Z,70.45
2019-01-04T01:36:50.401Z,70.62
2019-01-04T01:39:58.077Z,70.92
2019-01-04T01:54:39.924Z,71.42
2019-01-04T01:57:05.932Z,71.87
2019-01-04T01:59:31.929Z,71.54
2019-01-04T02:01:57.975Z,71.01
2019-01-04T02:04:23.961Z,71.21
2019-01-04T02:06:49.951Z,71.17
2019-01-04T02:09:15.981Z,70.76
2019-01-04T02:11:42.005Z,70.80
2019-01-04T02:14:08.007Z,70.20
2019-01-04T02:16:33.992Z,71.13
2019-01-04T02:19:00.023Z,71.40
2019-01-04T02:21:26.018Z,71.50
2019-01-04T02:23:52.046Z,70.87
2019-01-04T02:26:18.087Z,70.84
2019-01-04T02:29:04.126Z,70.35
2019-01-04T02:31:30.117Z,70.56
2019-01-04T02:33:56.151Z,71.08
2019-01-04T02:36:22.212Z,71.46
2019-01-04T02:38:48.191Z,71.19
2019-01-04T02:41:14.204Z,70.84
2019-01-04T02:43:40.629Z,70.22
2019-01-04T02:46:08.300Z,70.18
2019-01-04T02:48:34.331Z,70.79
2019-01-04T02:51:00.323Z,70.28
2019-01-04T02:53:26.356Z,69.76
2019-01-04T02:55:52.362Z,70.14
2019-01-04T02:58:18.382Z,70.87
2019-01-04T03:00:44.384Z,70.39
2019-01-04T03:03:10.413Z,70.63
2019-01-04T03:05:36.404Z,70.10
2019-01-04T03:08:02.436Z,70.19
2019-01-04T03:10:28.466Z,70.67
2019-01-04T03:12:54.444Z,71.66
2019-01-04T03:15:20.496Z,71.56
2019-01-04T03:17:46.569Z,71.29
2019-01-04T03:20:12.593Z,71.94
2019-01-04T03:22:38.722Z,71.80
2019-01-04T03:25:04.721Z,71.62
2019-01-04T03:27:30.717Z,71.52
2019-01-04T03:29:56.775Z,71.27
2019-01-04T03:32:22.727Z,71.57
2019-01-04T03:34:48.762Z,71.63
2019-01-04T03:37:14.795Z,71.43
2019-01-04T03:39:40.785Z,71.38
2019-01-04T03:42:06.807Z,71.44
2019-01-04T03:44:32.799Z,71.90
2019-01-04T03:46:58.863Z,71.55
2019-01-04T03:49:24.853Z,71.42
2019-01-04T03:51:50.872Z,71.42
2019-01-04T03:54:16.911Z,71.41
2019-01-04T03:56:42.897Z,71.49
2019-01-04T03:59:08.913Z,72.32
2019-01-04T04:01:34.898Z,71.83
2019-01-04T04:04:00.925Z,72.25
2019-01-04T04:06:26.921Z,72.43
2019-01-04T04:08:52.960Z,72.77
2019-01-04T04:11:18.962Z,73.24
2019-01-04T04:13:44.991Z,72.72
2019-01-04T04:16:10.984Z,73.04
2019-01-04T04:18:37.056Z,72.51
2019-01-04T04:21:03.040Z,72.60
2019-01-04T04:23:29.080Z,72.74
2019-01-04T04:25:57.164Z,73.53
2019-01-04T04:28:23.133Z,73.83
2019-01-04T04:30:49.199Z,73.35
2019-01-04T04:33:15.180Z,73.08
2019-01-04T04:35:41.221Z,73.11
2019-01-04T04:38:07.210Z,73.80
2019-01-04T04:40:33.258Z,73.93
2019-01-04T04:42:59.237Z,73.71
2019-01-04T04:45:25.287Z,73.93
2019-01-04T04:47:51.266Z,74.22
2019-01-04T04:50:17.309Z,75.03
2019-01-04T04:52:43.415Z,74.37
2019-01-04T04:55:09.363Z,74.39
2019-01-04T04:57:35.361Z,74.58
2019-01-04T05:00:01.379Z,74.64
2019-01-04T05:02:27.377Z,75.33
2019-01-04T05:07:19.411Z,75.45
2019-01-04T05:09:45.411Z,74.21
2019-01-04T05:12:11.414Z,75.40
2019-01-04T05:14:37.439Z,75.35
2019-01-04T05:17:03.462Z,74.66
2019-01-04T05:19:29.544Z,75.10
2019-01-04T05:21:55.551Z,74.62
2019-01-04T05:24:21.545Z,75.14
2019-01-04T05:26:47.573Z,75.49
2019-01-04T05:29:13.565Z,75.39
2019-01-04T05:31:39.593Z,75.05
2019-01-04T05:34:05.585Z,75.41
2019-01-04T05:36:31.635Z,75.65
2019-01-04T05:38:57.617Z,74.63
2019-01-04T05:41:23.647Z,74.87
2019-01-04T05:43:49.645Z,75.19
2019-01-04T05:46:15.678Z,74.80
2019-01-04T05:48:41.678Z,74.61
2019-01-04T05:51:07.696Z,74.51
2019-01-04T05:53:33.681Z,75.70
2019-01-04T05:55:59.696Z,75.20
2019-01-04T05:58:25.682Z,74.59
2019-01-04T06:00:51.682Z,74.69
2019-01-04T06:03:17.711Z,75.72
2019-01-04T06:05:43.727Z,76.12
2019-01-04T06:08:09.747Z,76.05
2019-01-04T06:10:35.728Z,75.77
2019-01-04T06:13:01.766Z,75.79
2019-01-04T06:15:27.765Z,75.95
2019-01-04T06:17:53.798Z,74.60
2019-01-04T06:20:19.833Z,75.00
2019-01-04T06:22:45.889Z,73.69
2019-01-04T06:25:11.888Z,74.30
2019-01-04T06:27:37.913Z,74.49
2019-01-04T06:33:17.479Z,74.21
2019-01-04T06:35:43.483Z,74.96
2019-01-04T06:38:09.517Z,75.51
2019-01-04T06:40:35.549Z,74.80
2019-01-04T06:43:01.581Z,75.50
2019-01-04T06:45:27.615Z,75.85
2019-01-04T06:47:53.635Z,75.85
2019-01-04T06:50:19.665Z,75.32
2019-01-04T06:52:45.653Z,75.22
2019-01-04T06:55:51.896Z,75.01
2019-01-04T06:58:17.933Z,74.87
2019-01-04T07:00:43.975Z,75.56
2019-01-04T07:03:09.971Z,75.45
2019-01-04T07:08:21.459Z,75.87
2019-01-04T07:10:47.452Z,75.85
2019-01-04T07:13:13.513Z,75.86
2019-01-04T07:15:39.490Z,76.05
2019-01-04T07:18:05.502Z,75.69
2019-01-04T07:20:31.496Z,76.04
2019-01-04T07:22:57.536Z,75.78
2019-01-04T07:25:23.534Z,75.80
2019-01-04T07:27:49.562Z,75.64
2019-01-04T07:30:15.624Z,75.55
2019-01-04T07:32:41.610Z,75.15
2019-01-04T07:35:07.674Z,75.09
2019-01-04T07:37:33.660Z,75.45
2019-01-04T07:39:59.716Z,75.50
2019-01-04T07:42:25.738Z,75.96
2019-01-04T07:44:51.763Z,75.08
2019-01-04T07:47:17.788Z,75.81
2019-01-04T07:49:43.827Z,76.76
2019-01-04T07:52:09.819Z,75.53
2019-01-04T07:54:35.826Z,75.75
2019-01-04T07:57:01.852Z,74.78
2019-01-04T07:59:27.845Z,76.03
2019-01-04T08:01:53.883Z,76.02
2019-01-04T08:04:19.877Z,75.45
2019-01-04T08:06:45.920Z,74.76
2019-01-04T08:09:11.955Z,74.84
2019-01-04T08:11:37.990Z,74.50
2019-01-04T08:14:03.975Z,75.25
2019-01-04T08:16:30.015Z,74.88
2019-01-04T08:18:56.011Z,74.74
2019-01-04T08:21:22.047Z,75.22
2019-01-04T08:23:48.061Z,74.35
2019-01-04T08:26:14.057Z,74.70
2019-01-04T08:28:40.098Z,75.93
2019-01-04T08:31:06.092Z,76.40
2019-01-04T08:33:32.122Z,75.87
2019-01-04T08:35:58.119Z,75.38
2019-01-04T08:38:24.150Z,76.27
2019-01-04T08:41:10.140Z,77.05
2019-01-04T08:43:36.195Z,77.00
2019-01-04T08:46:02.186Z,77.27
2019-01-04T08:49:09.844Z,77.28
2019-01-04T08:51:35.870Z,77.91
2019-01-04T08:54:21.856Z,78.67
2019-01-04T08:56:47.884Z,77.61
2019-01-04T08:59:13.921Z,77.22
2019-01-04T09:01:39.930Z,77.53
2019-01-04T09:04:05.954Z,77.96
2019-01-04T09:06:31.939Z,77.69
2019-01-04T09:08:57.969Z,77.24
2019-01-04T09:11:23.966Z,78.12
2019-01-04T09:13:50.006Z,77.92
2019-01-04T09:16:15.990Z,78.09
2019-01-04T09:18:42.012Z,77.68
2019-01-04T09:21:08.049Z,77.71
2019-01-04T09:26:05.832Z,77.76
2019-01-04T09:28:31.856Z,78.82
2019-01-04T09:30:57.901Z,78.97
2019-01-04T09:33:23.947Z,79.17
2019-01-04T09:35:49.947Z,79.61
2019-01-04T09:38:15.979Z,79.20
2019-01-04T09:40:41.963Z,78.99
2019-01-04T09:43:07.993Z,78.99
2019-01-04T09:45:33.999Z,79.47
2019-01-04T09:48:00.031Z,80.75
2019-01-04T09:50:26.033Z,81.04
2019-01-04T09:52:52.062Z,79.95
2019-01-04T09:55:18.062Z,80.08
2019-01-04T09:57:44.082Z,80.21
2019-01-04T10:00:10.212Z,79.67
2019-01-04T10:02:36.247Z,79.86
2019-01-04T10:05:43.901Z,80.15
2019-01-04T10:08:09.965Z,79.80
2019-01-04T10:10:35.957Z,79.66
2019-01-04T10:13:01.988Z,79.17
2019-01-04T10:15:28.004Z,78.35
2019-01-04T10:17:53.996Z,78.80
2019-01-04T10:20:20.033Z,78.45
2019-01-04T10:23:06.036Z,78.46
2019-01-04T10:25:32.102Z,78.44
2019-01-04T10:27:58.090Z,79.29
2019-01-04T10:31:05.787Z,78.83
2019-01-04T10:33:31.804Z,78.43
2019-01-04T10:35:57.820Z,77.94
2019-01-04T10:38:23.822Z,78.34
2019-01-04T10:40:49.853Z,78.57
2019-01-04T10:43:15.859Z,78.86
2019-01-04T10:45:41.884Z,78.83
2019-01-04T10:48:07.874Z,77.89
2019-01-04T10:50:33.895Z,78.78
2019-01-04T10:52:59.894Z,78.89
2019-01-04T10:55:25.904Z,78.83
2019-01-04T10:57:51.946Z,79.42
2019-01-04T11:00:18.049Z,78.78
2019-01-04T11:02:44.074Z,79.53
2019-01-04T11:05:10.076Z,79.91
2019-01-04T11:07:36.109Z,79.39
2019-01-04T11:10:43.723Z,79.38
2019-01-04T11:13:09.793Z,78.62
2019-01-04T11:18:21.426Z,78.06
2019-01-04T11:20:47.453Z,77.88
2019-01-04T11:23:53.239Z,78.35
2019-01-04T11:45:15.770Z,78.28
2019-01-04T11:48:23.472Z,77.99
2019-01-04T11:57:03.626Z,77.27
2019-01-04T11:59:29.616Z,77.71
2019-01-04T12:01:55.646Z,77.81
2019-01-04T12:04:21.677Z,77.58
2019-01-04T12:06:47.690Z,78.18
2019-01-04T12:09:13.728Z,77.63
2019-01-04T12:11:39.768Z,77.29
2019-01-04T12:14:05.753Z,77.98
2019-01-04T12:16:31.764Z,77.61
2019-01-04T12:18:57.769Z,77.54
2019-01-04T12:21:23.805Z,77.39
2019-01-04T12:23:49.798Z,76.92
2019-01-04T12:26:15.798Z,77.26
2019-01-04T12:28:41.834Z,78.16
2019-01-04T12:31:07.898Z,77.81
2019-01-04T12:33:33.901Z,77.82
2019-01-04T12:35:59.904Z,77.29
2019-01-04T12:38:25.928Z,76.91
2019-01-04T12:40:51.929Z,77.17
2019-01-04T12:43:17.966Z,77.62
2019-01-04T12:45:43.955Z,76.58
2019-01-04T12:48:09.999Z,76.30
2019-01-04T12:50:36.012Z,76.62
2019-01-04T12:53:02.024Z,76.18
2019-01-04T12:55:28.061Z,77.19
2019-01-04T12:57:54.091Z,77.00
2019-01-04T13:00:20.121Z,76.98
2019-01-04T13:02:46.138Z,76.70
2019-01-04T13:05:12.171Z,77.11
2019-01-04T13:07:38.160Z,77.65
2019-01-04T13:10:45.816Z,77.35
2019-01-04T13:13:11.840Z,77.60
2019-01-04T13:15:37.867Z,78.45
2019-01-04T13:18:03.859Z,77.43
2019-01-04T13:20:29.892Z,78.70
2019-01-04T13:22:55.908Z,78.82
2019-01-04T13:25:21.942Z,78.43
2019-01-04T13:27:47.984Z,77.84
2019-01-04T13:30:13.966Z,77.53
2019-01-04T13:32:40.049Z,77.67
2019-01-04T13:35:06.051Z,78.34
2019-01-04T13:37:32.073Z,78.00
2019-01-04T13:39:58.071Z,78.58
2019-01-04T13:42:24.071Z,78.84
2019-01-04T13:44:50.112Z,79.24
2019-01-04T13:47:16.129Z,78.51
2019-01-04T13:49:42.162Z,79.64
2019-01-04T13:52:08.201Z,79.08
2019-01-04T13:54:34.212Z,78.81
2019-01-04T13:57:00.213Z,78.80
2019-01-04T13:59:26.238Z,78.83
2019-01-04T14:01:52.238Z,79.10
2019-01-04T14:04:18.285Z,79.15
2019-01-04T14:06:44.299Z,79.50
2019-01-04T14:09:17.815Z,79.45
2019-01-04T14:11:43.791Z,79.13
2019-01-04T14:14:09.837Z,79.49
2019-01-04T14:16:35.847Z,79.55
2019-01-04T14:19:01.853Z,79.54
2019-01-04T14:21:27.901Z,79.48
2019-01-04T14:23:53.951Z,79.66
2019-01-04T14:26:19.968Z,80.60
2019-01-04T14:28:45.959Z,80.34
2019-01-04T14:31:12.016Z,80.08
2019-01-04T14:33:38.085Z,79.73
2019-01-04T14:36:04.095Z,79.99
2019-01-04T14:38:30.132Z,79.66
2019-01-04T14:40:56.156Z,79.95
2019-01-04T14:43:22.214Z,79.87
2019-01-04T14:45:48.205Z,79.85
2019-01-04T14:48:14.238Z,80.09
2019-01-04T14:50:40.225Z,80.56
2019-01-04T14:53:06.974Z,80.13
2019-01-04T14:55:34.216Z,80.43
2019-01-04T14:58:00.251Z,80.55
2019-01-04T15:00:26.244Z,80.10
2019-01-04T15:02:52.286Z,80.21
2019-01-04T15:05:18.320Z,80.47
2019-01-04T15:07:44.334Z,80.20
2019-01-04T15:10:10.385Z,80.76
2019-01-04T15:12:36.409Z,80.99
2019-01-04T15:15:44.087Z,80.28
2019-01-04T15:18:10.156Z,80.38
2019-01-04T15:20:36.162Z,80.99
2019-01-04T15:23:02.219Z,80.01
2019-01-04T15:25:28.293Z,79.91
2019-01-04T15:27:54.304Z,80.52
2019-01-04T15:30:20.338Z,79.53
2019-01-04T15:32:46.331Z,79.71
2019-01-04T15:35:12.370Z,79.67
2019-01-04T15:37:38.379Z,80.29
2019-01-04T15:40:46.025Z,80.51
2019-01-04T15:43:12.061Z,80.59
2019-01-04T15:45:38.095Z,80.60
2019-01-04T15:48:04.085Z,80.02
2019-01-04T15:50:30.133Z,80.50
2019-01-04T15:52:56.139Z,80.50
2019-01-04T15:58:01.619Z,80.62
2019-01-04T16:00:27.643Z,80.12
2019-01-04T16:02:53.652Z,79.88
2019-01-04T16:05:19.687Z,79.61
2019-01-04T16:07:45.707Z,79.53
2019-01-04T16:10:11.691Z,78.90
2019-01-04T16:12:37.746Z,79.11
2019-01-04T16:15:45.365Z,79.55
2019-01-04T16:18:11.433Z,79.91
2019-01-04T16:20:37.445Z,79.99
2019-01-04T16:23:03.482Z,80.04
2019-01-04T16:25:29.543Z,80.82
2019-01-04T16:27:55.580Z,80.94
2019-01-04T16:30:21.628Z,79.87
2019-01-04T16:32:47.670Z,80.21
2019-01-04T16:35:13.705Z,80.03
2019-01-04T16:37:39.706Z,79.91
2019-01-04T16:40:47.363Z,80.16
2019-01-04T16:43:13.388Z,80.33
2019-01-04T16:48:17.321Z,79.79
2019-01-04T16:50:43.310Z,80.28
2019-01-04T16:53:09.377Z,80.29
2019-01-04T16:55:35.388Z,80.80
2019-01-04T16:58:01.414Z,80.50
2019-01-04T17:00:27.417Z,79.98
2019-01-04T17:02:53.477Z,80.04
2019-01-04T17:05:19.519Z,79.71
2019-01-04T17:07:45.533Z,79.66
2019-01-04T17:10:11.572Z,79.99
2019-01-04T17:12:37.602Z,80.00
2019-01-04T17:15:45.261Z,79.63
2019-01-04T17:18:11.297Z,80.51
2019-01-04T17:20:37.351Z,80.45
2019-01-04T17:23:03.345Z,80.40
2019-01-04T17:25:29.359Z,80.38
2019-01-04T17:27:55.393Z,80.34
2019-01-04T17:30:21.441Z,80.12
2019-01-04T17:32:47.478Z,80.04
2019-01-04T17:35:13.486Z,80.87
2019-01-04T17:37:39.522Z,80.94
2019-01-04T17:43:19.649Z,81.16
2019-01-04T17:45:45.648Z,80.37
2019-01-04T17:48:11.684Z,80.04
2019-01-04T17:50:37.693Z,81.29
2019-01-04T17:53:03.838Z,80.61
2019-01-04T17:55:29.840Z,80.94
2019-01-04T17:57:55.858Z,80.65
2019-01-04T18:03:09.322Z,80.57
2019-01-04T18:05:35.316Z,80.37
2019-01-04T18:08:01.351Z,80.21
2019-01-04T18:10:27.390Z,80.22
2019-01-04T18:12:53.380Z,79.70
2019-01-04T18:15:19.415Z,79.94
2019-01-04T18:17:45.422Z,80.05
2019-01-04T18:20:11.460Z,80.98
2019-01-04T18:22:37.457Z,80.03
2019-01-04T18:25:03.505Z,81.00
2019-01-04T18:27:29.501Z,80.70
2019-01-04T18:29:55.569Z,80.74
2019-01-04T18:32:21.735Z,79.73
2019-01-04T18:34:47.799Z,79.69
2019-01-04T18:37:13.783Z,80.19
2019-01-04T18:39:39.796Z,79.65
2019-01-04T18:42:05.829Z,79.49
2019-01-04T18:44:31.821Z,79.38
2019-01-04T18:46:57.863Z,80.03
2019-01-04T18:49:23.913Z,79.98
2019-01-04T18:51:49.943Z,79.84
2019-01-04T18:54:15.945Z,79.90
2019-01-04T18:56:41.947Z,79.40
2019-01-04T18:59:07.983Z,79.85
2019-01-04T19:01:34.061Z,80.25
2019-01-04T19:04:00.104Z,79.18
2019-01-04T19:06:31.098Z,79.51
2019-01-04T19:08:54.180Z,79.74
2019-01-04T19:13:53.798Z,80.13
2019-01-04T19:16:19.860Z,79.77
2019-01-04T19:18:45.858Z,80.99
2019-01-04T19:21:11.900Z,80.78
2019-01-04T19:23:39.644Z,80.05
2019-01-04T19:26:05.910Z,79.95
2019-01-04T19:28:31.980Z,80.44
2019-01-04T19:30:58.080Z,80.23
2019-01-04T19:33:24.160Z,79.84
2019-01-04T19:35:50.193Z,79.75
2019-01-04T19:38:16.245Z,80.11
2019-01-04T19:40:42.280Z,79.41
2019-01-04T19:43:08.334Z,79.35
2019-01-04T19:45:34.385Z,79.97
2019-01-04T19:48:00.393Z,79.87
2019-01-04T19:50:46.401Z,80.52
2019-01-04T19:53:12.434Z,79.74
2019-01-04T19:55:38.471Z,80.12
2019-01-04T19:58:04.485Z,79.72
2019-01-04T20:00:30.533Z,79.48
2019-01-04T20:02:56.544Z,79.56
2019-01-04T20:06:22.167Z,80.00
2019-01-04T20:09:47.770Z,79.50
2019-01-04T20:13:13.409Z,79.33
2019-01-04T20:21:37.586Z,78.98
2019-01-04T20:24:23.474Z,79.01
2019-01-04T20:27:09.441Z,79.70
2019-01-04T20:29:55.350Z,78.62
2019-01-04T20:32:41.324Z,80.02
2019-01-04T20:35:27.230Z,79.66
2019-01-04T20:38:14.042Z,79.24
2019-01-04T20:40:59.977Z,79.17
2019-01-04T20:46:23.487Z,78.81
2019-01-04T20:49:09.420Z,79.58
2019-01-04T20:54:42.767Z,80.09
2019-01-04T20:57:28.667Z,79.40
2019-01-04T21:00:14.598Z,80.01
2019-01-04T21:05:47.972Z,79.33
2019-01-04T21:08:33.933Z,79.34
2019-01-04T21:11:19.877Z,79.12
2019-01-04T21:14:05.832Z,79.29
2019-01-04T21:16:51.778Z,79.40
2019-01-04T21:19:37.670Z,79.76
2019-01-04T21:22:24.286Z,80.02
2019-01-04T21:30:31.348Z,80.75
2019-01-04T21:33:17.329Z,80.68
2019-01-04T21:36:03.269Z,80.79
2019-01-04T21:38:49.163Z,81.03
2019-01-04T21:41:35.120Z,80.03
2019-01-04T21:44:21.007Z,80.87
2019-01-04T21:47:06.943Z,80.82
2019-01-04T21:49:52.842Z,80.45
2019-01-04T21:52:38.789Z,80.52
2019-01-04T21:55:24.739Z,80.50
2019-01-04T21:58:10.674Z,79.98
2019-01-04T22:03:44.022Z,81.06
2019-01-04T22:14:28.845Z,81.45
2019-01-04T22:17:14.757Z,81.28
2019-01-04T22:20:00.692Z,81.91
2019-01-04T22:25:20.473Z,80.65
2019-01-04T22:28:06.380Z,80.79
2019-01-04T22:30:52.398Z,80.92
2019-01-04T22:33:38.311Z,81.10
2019-01-04T22:36:24.246Z,81.25
2019-01-04T22:39:10.138Z,82.22
2019-01-04T22:41:56.066Z,81.86
2019-01-04T22:44:41.983Z,81.81
2019-01-04T22:47:27.901Z,82.06
2019-01-04T22:50:13.807Z,82.04
2019-01-04T22:52:59.731Z,82.06
2019-01-04T22:55:45.669Z,81.36
2019-01-04T22:58:31.571Z,82.33
2019-01-04T23:04:04.925Z,81.88
2019-01-04T23:06:50.819Z,82.22
2019-01-04T23:12:10.694Z,81.62
2019-01-04T23:14:56.649Z,81.97
2019-01-04T23:17:42.563Z,81.71
2019-01-04T23:20:28.500Z,82.00
2019-01-04T23:23:14.397Z,82.21
2019-01-04T23:26:00.329Z,81.68
2019-01-04T23:28:46.284Z,81.39
2019-01-04T23:31:32.244Z,81.21
2019-01-04T23:34:18.220Z,82.11
2019-01-04T23:37:04.158Z,81.21
2019-01-04T23:39:50.042Z,82.01
2019-01-04T23:50:25.222Z,82.41
2019-01-04T23:53:11.141Z,81.83
2019-01-04T23:55:57.048Z,81.92
